Time;durP1;ratioP1;P1;durP2;ratioP2;P2;SDS_P1;SDS_P2;PMS_P1;PMS_P2;Temp;Humidity;BMP_temperature;BMP_pressure;BME280_temperature;BME280_humidity;BME280_pressure;Samples;Min_cycle;Max_cycle;Signal;HPM_P1;HPM_P2
2021/03/09 00:02:18;;;;;;;17.60;5.05;;;;;;;;;;5001888;28;20045;-64
2021/03/09 00:04:45;;;;;;;15.40;5.28;;;;;;;;;;5017629;28;20110;-62
2021/03/09 00:07:11;;;;;;;14.93;5.47;;;;;;;;;;5020335;28;20046;-63
2021/03/09 00:09:37;;;;;;;12.80;4.80;;;;;;;;;;5004444;28;20153;-61
2021/03/09 00:12:03;;;;;;;12.85;5.18;;;;;;;;;;5003050;28;20041;-61
2021/03/09 00:14:29;;;;;;;17.25;6.25;;;;;;;;;;4999542;28;20038;-60
2021/03/09 00:16:55;;;;;;;15.25;5.28;;;;;;;;;;5003995;28;20056;-63
2021/03/09 00:19:22;;;;;;;18.45;5.63;;;;;;;;;;4999786;28;20046;-60
2021/03/09 00:21:48;;;;;;;15.23;4.75;;;;;;;;;;5002873;28;20061;-61
2021/03/09 00:24:14;;;;;;;15.27;5.32;;;;;;;;;;4999378;28;20062;-58
2021/03/09 00:26:40;;;;;;;14.93;5.50;;;;;;;;;;5002461;28;20131;-61
2021/03/09 00:29:14;;;;;;;16.15;5.63;;;;;;;;;;5007321;28;20037;-59
2021/03/09 00:31:40;;;;;;;13.93;5.40;;;;;;;;;;5024397;28;20038;-59
2021/03/09 00:34:06;;;;;;;14.63;5.07;;;;;;;;;;5020791;28;20060;-61
2021/03/09 00:36:32;;;;;;;16.38;5.93;;;;;;;;;;5023625;28;20037;-59
2021/03/09 00:38:59;;;;;;;14.20;5.32;;;;;;;;;;5016914;28;20153;-63
2021/03/09 00:41:26;;;;;;;14.13;4.75;;;;;;;;;;5004614;28;20056;-60
2021/03/09 00:43:52;;;;;;;18.15;6.00;;;;;;;;;;5013893;28;20050;-63
2021/03/09 00:46:18;;;;;;;17.23;5.18;;;;;;;;;;5019783;28;20052;-61
2021/03/09 00:48:44;;;;;;;15.90;5.95;;;;;;;;;;5027200;28;20044;-62
2021/03/09 00:51:10;;;;;;;17.20;5.93;;;;;;;;;;5006477;28;20045;-65
2021/03/09 00:53:36;;;;;;;14.15;5.60;;;;;;;;;;5009018;28;20030;-61
2021/03/09 00:56:03;;;;;;;14.50;5.20;;;;;;;;;;5017578;28;20041;-63
2021/03/09 00:58:29;;;;;;;16.98;5.88;;;;;;;;;;5027220;28;20066;-59
2021/03/09 01:00:55;;;;;;;19.20;6.63;;;;;;;;;;5013646;28;20131;-65
2021/03/09 01:03:21;;;;;;;17.30;6.05;;;;;;;;;;5008380;28;20037;-61
2021/03/09 01:05:47;;;;;;;15.77;6.10;;;;;;;;;;5005544;28;20191;-61
2021/03/09 01:08:13;;;;;;;20.95;6.90;;;;;;;;;;5008414;28;20119;-64
2021/03/09 01:10:39;;;;;;;23.13;6.50;;;;;;;;;;5008657;28;20049;-63
2021/03/09 01:13:06;;;;;;;19.13;5.90;;;;;;;;;;5045972;28;20047;-60
2021/03/09 01:15:32;;;;;;;18.15;7.00;;;;;;;;;;5022239;28;20080;-61
2021/03/09 01:17:58;;;;;;;14.82;5.95;;;;;;;;;;5006736;28;20096;-61
2021/03/09 01:20:25;;;;;;;17.98;6.72;;;;;;;;;;5006569;28;20300;-66
2021/03/09 01:22:51;;;;;;;16.73;6.15;;;;;;;;;;5023617;28;20049;-60
2021/03/09 01:25:17;;;;;;;15.00;5.47;;;;;;;;;;5008792;28;20111;-60
2021/03/09 01:27:43;;;;;;;19.27;6.90;;;;;;;;;;5006038;28;20045;-63
2021/03/09 01:30:11;;;;;;;16.58;6.68;;;;;;;;;;5006339;28;20026;-59
2021/03/09 01:32:37;;;;;;;19.10;6.30;;;;;;;;;;5003004;28;20050;-59
2021/03/09 01:35:03;;;;;;;22.05;6.70;;;;;;;;;;5008060;28;20033;-62
2021/03/09 01:37:29;;;;;;;16.85;6.63;;;;;;;;;;5004373;28;20057;-59
2021/03/09 01:39:57;;;;;;;15.60;5.93;;;;;;;;;;5007864;28;20030;-58
2021/03/09 01:42:23;;;;;;;17.05;6.15;;;;;;;;;;5021349;28;20049;-60
2021/03/09 01:44:49;;;;;;;17.88;6.90;;;;;;;;;;5005299;28;20105;-61
2021/03/09 01:47:17;;;;;;;17.52;6.68;;;;;;;;;;5009560;28;20042;-58
2021/03/09 01:49:43;;;;;;;22.08;7.45;;;;;;;;;;5023837;28;20064;-63
2021/03/09 01:52:10;;;;;;;18.15;7.13;;;;;;;;;;5008030;28;20037;-62
2021/03/09 01:54:36;;;;;;;19.63;7.25;;;;;;;;;;5027084;28;20482;-60
2021/03/09 01:57:02;;;;;;;18.88;7.63;;;;;;;;;;5023369;28;20037;-61
2021/03/09 01:59:29;;;;;;;18.10;6.82;;;;;;;;;;5010144;28;20037;-62
2021/03/09 02:01:56;;;;;;;23.95;7.20;;;;;;;;;;5008482;28;20042;-63
2021/03/09 02:04:22;;;;;;;21.80;7.75;;;;;;;;;;5022495;28;20526;-63
2021/03/09 02:06:48;;;;;;;19.58;7.30;;;;;;;;;;5027600;28;20052;-59
2021/03/09 02:09:15;;;;;;;20.50;8.02;;;;;;;;;;5040573;28;20053;-60
2021/03/09 02:11:45;;;;;;;21.48;8.27;;;;;;;;;;5026932;28;20116;-59
2021/03/09 02:14:13;;;;;;;21.23;7.75;;;;;;;;;;5039060;28;20085;-62
2021/03/09 02:16:52;;;;;;;17.45;7.10;;;;;;;;;;5027126;28;20052;-63
2021/03/09 02:19:40;;;;;;;27.88;7.53;;;;;;;;;;5008537;28;20037;-60
2021/03/09 02:22:30;;;;;;;22.17;7.90;;;;;;;;;;4986323;28;20057;-60
2021/03/09 02:25:03;;;;;;;25.42;8.00;;;;;;;;;;4981645;28;20038;-62
2021/03/09 02:27:37;;;;;;;26.77;9.20;;;;;;;;;;5025285;28;20033;-60
2021/03/09 02:30:25;;;;;;;17.55;7.20;;;;;;;;;;5005668;28;20044;-63
2021/03/09 02:32:55;;;;;;;19.02;7.85;;;;;;;;;;5005501;28;20049;-62
2021/03/09 02:35:23;;;;;;;29.55;9.85;;;;;;;;;;5020567;28;20041;-59
2021/03/09 02:37:50;;;;;;;30.40;10.50;;;;;;;;;;5026897;28;20038;-60
2021/03/09 02:40:17;;;;;;;29.05;10.38;;;;;;;;;;5003769;28;20061;-59
2021/03/09 02:42:47;;;;;;;24.75;8.50;;;;;;;;;;5006695;28;20053;-59
2021/03/09 02:45:15;;;;;;;23.17;8.95;;;;;;;;;;5003299;28;20049;-60
2021/03/09 02:47:44;;;;;;;29.33;9.60;;;;;;;;;;5006723;28;20037;-59
2021/03/09 02:50:11;;;;;;;25.88;9.25;;;;;;;;;;5012576;28;20056;-60
2021/03/09 02:52:37;;;;;;;26.55;9.05;;;;;;;;;;5044393;28;20091;-59
2021/03/09 02:55:05;;;;;;;25.52;9.85;;;;;;;;;;5022980;28;20037;-60
2021/03/09 02:57:32;;;;;;;24.13;9.23;;;;;;;;;;5044966;28;20049;-60
2021/03/09 03:00:02;;;;;;;25.50;8.30;;;;;;;;;;5034965;28;20060;-60
2021/03/09 03:02:28;;;;;;;24.83;9.48;;;;;;;;;;5001082;28;20056;-59
2021/03/09 03:04:55;;;;;;;27.17;9.02;;;;;;;;;;4990113;28;20401;-59
2021/03/09 03:07:21;;;;;;;27.20;9.02;;;;;;;;;;5024680;28;20049;-59
2021/03/09 03:09:48;;;;;;;29.50;9.13;;;;;;;;;;5022476;28;20038;-59
2021/03/09 03:12:14;;;;;;;27.05;10.02;;;;;;;;;;5006216;28;20038;-59
2021/03/09 03:14:41;;;;;;;25.13;9.93;;;;;;;;;;5025166;28;20042;-62
2021/03/09 03:17:07;;;;;;;26.70;8.98;;;;;;;;;;5021251;28;20034;-63
2021/03/09 03:19:33;;;;;;;23.95;8.98;;;;;;;;;;5005372;28;20037;-64
2021/03/09 03:22:01;;;;;;;27.67;10.15;;;;;;;;;;4999696;28;20046;-64
2021/03/09 03:24:27;;;;;;;27.90;9.43;;;;;;;;;;4987612;28;20077;-64
2021/03/09 03:26:54;;;;;;;23.83;9.48;;;;;;;;;;4999055;28;20038;-61
2021/03/09 03:29:20;;;;;;;27.23;9.98;;;;;;;;;;4992586;28;20042;-60
2021/03/09 03:31:47;;;;;;;25.38;9.68;;;;;;;;;;5021032;28;20041;-64
2021/03/09 03:34:13;;;;;;;25.95;10.30;;;;;;;;;;5023695;28;20034;-64
2021/03/09 03:36:39;;;;;;;27.60;10.10;;;;;;;;;;4999912;28;20048;-61
2021/03/09 03:39:08;;;;;;;28.80;10.70;;;;;;;;;;5006013;28;20144;-61
2021/03/09 03:41:34;;;;;;;29.13;10.48;;;;;;;;;;5005250;28;20550;-63
2021/03/09 03:44:00;;;;;;;31.27;10.23;;;;;;;;;;5011380;28;20038;-63
2021/03/09 03:46:27;;;;;;;27.92;10.18;;;;;;;;;;5003426;28;20041;-62
2021/03/09 03:48:53;;;;;;;27.10;10.27;;;;;;;;;;5002403;28;20046;-60
2021/03/09 03:51:22;;;;;;;30.45;10.77;;;;;;;;;;5000248;28;20097;-59
2021/03/09 03:53:50;;;;;;;30.70;12.52;;;;;;;;;;4982506;28;20052;-62
2021/03/09 03:56:20;;;;;;;32.37;11.63;;;;;;;;;;4981742;28;20042;-61
2021/03/09 03:58:48;;;;;;;32.58;12.40;;;;;;;;;;4999805;28;20136;-61
2021/03/09 04:01:15;;;;;;;33.40;11.48;;;;;;;;;;5001817;28;20034;-64
2021/03/09 04:03:41;;;;;;;28.65;10.52;;;;;;;;;;5017284;28;20364;-63
2021/03/09 04:06:07;;;;;;;32.25;12.63;;;;;;;;;;5023646;28;20041;-62
2021/03/09 04:08:34;;;;;;;32.63;11.73;;;;;;;;;;5002848;28;20054;-62
2021/03/09 04:11:01;;;;;;;28.35;10.45;;;;;;;;;;5002156;28;20046;-62
2021/03/09 04:13:28;;;;;;;30.25;11.68;;;;;;;;;;4998886;28;20034;-63
2021/03/09 04:15:55;;;;;;;35.55;12.43;;;;;;;;;;5005184;28;20042;-59
2021/03/09 04:18:22;;;;;;;34.42;11.18;;;;;;;;;;5012565;28;20058;-62
2021/03/09 04:20:49;;;;;;;35.10;10.75;;;;;;;;;;5027445;28;20053;-60
2021/03/09 04:23:15;;;;;;;31.73;12.23;;;;;;;;;;5023499;28;20057;-63
2021/03/09 04:25:42;;;;;;;32.25;10.65;;;;;;;;;;5028188;28;20037;-59
2021/03/09 04:28:09;;;;;;;28.33;10.77;;;;;;;;;;5023451;28;20053;-60
2021/03/09 04:30:36;;;;;;;34.65;10.90;;;;;;;;;;5010305;28;20123;-61
2021/03/09 04:33:03;;;;;;;31.55;11.50;;;;;;;;;;5005316;28;20046;-60
2021/03/09 04:35:29;;;;;;;25.67;10.25;;;;;;;;;;5026853;28;20057;-60
2021/03/09 04:37:55;;;;;;;33.38;11.60;;;;;;;;;;5027038;28;20052;-60
2021/03/09 04:40:21;;;;;;;24.63;10.38;;;;;;;;;;5003353;28;20038;-63
2021/03/09 04:42:47;;;;;;;36.58;12.95;;;;;;;;;;5008875;28;20042;-60
2021/03/09 04:45:13;;;;;;;27.55;11.73;;;;;;;;;;5004709;28;20044;-65
2021/03/09 04:47:41;;;;;;;31.33;10.95;;;;;;;;;;5009472;28;20046;-62
2021/03/09 04:50:08;;;;;;;30.67;12.23;;;;;;;;;;5004768;28;20061;-59
2021/03/09 04:52:34;;;;;;;32.70;12.98;;;;;;;;;;5007754;28;20046;-65
2021/03/09 04:55:00;;;;;;;32.67;12.57;;;;;;;;;;5007373;28;20049;-64
2021/03/09 04:57:36;;;;;;;40.58;11.60;;;;;;;;;;5010262;28;20042;-63
2021/03/09 05:00:03;;;;;;;33.25;13.00;;;;;;;;;;5006555;28;20034;-63
2021/03/09 05:02:28;;;;;;;35.58;13.38;;;;;;;;;;5005755;28;20045;-62
2021/03/09 05:04:55;;;;;;;40.33;12.68;;;;;;;;;;5006627;28;20046;-62
2021/03/09 05:07:21;;;;;;;36.15;13.82;;;;;;;;;;5008196;28;20098;-60
2021/03/09 05:09:48;;;;;;;32.28;13.05;;;;;;;;;;5004101;28;20046;-61
2021/03/09 05:12:13;;;;;;;32.63;12.60;;;;;;;;;;5007816;28;20067;-65
2021/03/09 05:14:39;;;;;;;39.97;14.57;;;;;;;;;;5005949;28;20042;-64
2021/03/09 05:17:05;;;;;;;36.10;12.50;;;;;;;;;;5027816;28;20049;-62
2021/03/09 05:19:31;;;;;;;33.35;12.70;;;;;;;;;;5027877;28;20074;-65
2021/03/09 05:21:58;;;;;;;31.73;12.50;;;;;;;;;;5007097;28;20046;-64
2021/03/09 05:24:24;;;;;;;28.35;11.55;;;;;;;;;;5007799;28;20054;-64
2021/03/09 05:26:52;;;;;;;32.83;12.45;;;;;;;;;;5003249;28;20177;-61
2021/03/09 05:29:19;;;;;;;36.65;13.88;;;;;;;;;;4996677;28;20046;-64
2021/03/09 05:31:45;;;;;;;36.17;13.98;;;;;;;;;;4994224;28;20398;-62
2021/03/09 05:34:11;;;;;;;33.05;12.82;;;;;;;;;;5003982;28;20053;-63
2021/03/09 05:36:37;;;;;;;30.17;11.88;;;;;;;;;;5002295;28;20046;-59
2021/03/09 05:39:04;;;;;;;34.78;13.15;;;;;;;;;;5004506;28;20046;-59
2021/03/09 05:41:30;;;;;;;35.92;13.18;;;;;;;;;;5000067;28;20042;-62
2021/03/09 05:43:57;;;;;;;35.78;13.38;;;;;;;;;;4992663;28;20057;-60
2021/03/09 05:46:23;;;;;;;34.25;12.68;;;;;;;;;;4987325;28;20034;-62
2021/03/09 05:48:49;;;;;;;35.92;11.40;;;;;;;;;;5004736;28;20046;-59
2021/03/09 05:51:15;;;;;;;33.10;12.68;;;;;;;;;;5004648;28;20064;-61
2021/03/09 05:53:40;;;;;;;28.38;11.25;;;;;;;;;;5023686;28;20054;-61
2021/03/09 05:56:08;;;;;;;34.30;11.55;;;;;;;;;;5025002;28;20131;-59
2021/03/09 05:58:34;;;;;;;29.17;11.85;;;;;;;;;;5022978;28;20415;-59
2021/03/09 06:01:00;;;;;;;29.17;11.30;;;;;;;;;;5024404;28;20092;-62
2021/03/09 06:03:26;;;;;;;33.10;12.63;;;;;;;;;;5004705;28;20038;-60
2021/03/09 06:05:52;;;;;;;33.40;12.88;;;;;;;;;;5004022;28;20110;-64
2021/03/09 06:08:18;;;;;;;33.80;13.65;;;;;;;;;;5014650;28;20148;-65
2021/03/09 06:10:45;;;;;;;28.00;12.02;;;;;;;;;;5023925;28;20127;-61
2021/03/09 06:13:32;;;;;;;36.05;12.13;;;;;;;;;;5017935;28;20085;-62
2021/03/09 06:15:58;;;;;;;32.50;12.85;;;;;;;;;;5023493;28;20045;-61
2021/03/09 06:18:24;;;;;;;31.30;11.98;;;;;;;;;;5008339;28;20049;-60
2021/03/09 06:20:50;;;;;;;33.58;13.93;;;;;;;;;;5003862;28;20350;-66
2021/03/09 06:23:26;;;;;;;33.63;13.90;;;;;;;;;;5002702;28;20038;-63
2021/03/09 06:25:52;;;;;;;29.80;12.77;;;;;;;;;;5006357;28;20038;-63
2021/03/09 06:28:28;;;;;;;34.33;13.35;;;;;;;;;;5007367;28;20131;-63
2021/03/09 06:30:54;;;;;;;29.60;11.18;;;;;;;;;;5023337;28;20034;-62
2021/03/09 06:33:26;;;;;;;37.70;13.30;;;;;;;;;;5013808;28;20034;-63
2021/03/09 06:35:52;;;;;;;34.10;12.52;;;;;;;;;;5004466;28;20132;-65
2021/03/09 06:38:20;;;;;;;34.50;12.15;;;;;;;;;;5006484;28;20041;-59
2021/03/09 06:41:04;;;;;;;31.23;12.57;;;;;;;;;;5022018;28;20093;-62
2021/03/09 06:43:31;;;;;;;30.13;12.55;;;;;;;;;;5012680;28;20507;-63
2021/03/09 06:46:09;;;;;;;32.53;12.05;;;;;;;;;;5024695;28;20131;-64
2021/03/09 06:48:37;;;;;;;33.47;12.90;;;;;;;;;;5018893;28;20057;-63
2021/03/09 06:51:04;;;;;;;31.77;12.55;;;;;;;;;;5025348;28;20040;-66
2021/03/09 06:53:30;;;;;;;33.15;12.65;;;;;;;;;;5022178;28;20044;-63
2021/03/09 06:55:55;;;;;;;42.30;16.23;;;;;;;;;;5006188;28;20050;-64
2021/03/09 06:58:27;;;;;;;34.47;13.18;;;;;;;;;;5000388;28;20135;-64
2021/03/09 07:00:54;;;;;;;32.45;12.15;;;;;;;;;;5000931;28;20038;-64
2021/03/09 07:03:31;;;;;;;29.52;11.27;;;;;;;;;;5004028;28;20127;-66
2021/03/09 07:05:59;;;;;;;32.95;12.95;;;;;;;;;;5000439;28;20046;-58
2021/03/09 07:08:27;;;;;;;32.40;12.70;;;;;;;;;;5003576;28;20049;-66
2021/03/09 07:10:53;;;;;;;29.73;12.20;;;;;;;;;;4999001;28;20046;-66
2021/03/09 07:13:22;;;;;;;32.15;12.65;;;;;;;;;;5003128;28;20056;-61
2021/03/09 07:15:47;;;;;;;41.65;14.30;;;;;;;;;;5001994;28;20042;-61
2021/03/09 07:18:15;;;;;;;36.67;13.98;;;;;;;;;;5005545;28;20050;-67
2021/03/09 07:20:41;;;;;;;33.10;13.48;;;;;;;;;;5000898;28;20062;-64
2021/03/09 07:23:08;;;;;;;35.38;13.27;;;;;;;;;;5003512;28;20057;-64
2021/03/09 07:25:34;;;;;;;37.53;14.02;;;;;;;;;;4997750;28;20042;-62
2021/03/09 07:28:01;;;;;;;35.80;13.88;;;;;;;;;;5022213;28;20045;-66
2021/03/09 07:30:28;;;;;;;34.72;14.40;;;;;;;;;;5017196;28;20038;-66
2021/03/09 07:32:55;;;;;;;31.67;12.20;;;;;;;;;;5005214;28;20037;-64
2021/03/09 07:35:23;;;;;;;33.72;13.57;;;;;;;;;;5004189;28;20049;-66
2021/03/09 07:37:49;;;;;;;35.97;13.68;;;;;;;;;;5022713;28;20041;-65
2021/03/09 07:40:16;;;;;;;33.17;13.68;;;;;;;;;;5004156;28;20049;-63
2021/03/09 07:42:42;;;;;;;30.52;12.25;;;;;;;;;;5007197;28;20057;-64
2021/03/09 07:45:09;;;;;;;36.03;13.05;;;;;;;;;;5006964;28;20045;-63
2021/03/09 07:47:39;;;;;;;37.13;12.30;;;;;;;;;;5003704;28;20157;-62
2021/03/09 07:50:08;;;;;;;40.65;15.20;;;;;;;;;;5001143;28;20038;-63
2021/03/09 07:52:35;;;;;;;36.83;15.55;;;;;;;;;;5001458;28;20042;-65
2021/03/09 07:55:18;;;;;;;28.05;11.48;;;;;;;;;;5004081;28;20061;-62
2021/03/09 07:57:44;;;;;;;27.17;11.02;;;;;;;;;;4999419;28;20046;-64
2021/03/09 08:00:12;;;;;;;29.30;11.75;;;;;;;;;;5002003;28;20058;-66
2021/03/09 08:02:57;;;;;;;24.58;9.73;;;;;;;;;;4999933;28;20050;-66
2021/03/09 08:05:25;;;;;;;27.60;9.70;;;;;;;;;;5001376;28;20038;-63
2021/03/09 08:07:58;;;;;;;25.67;10.15;;;;;;;;;;4996563;28;20046;-64
2021/03/09 08:10:43;;;;;;;27.58;10.70;;;;;;;;;;4980432;28;20034;-65
2021/03/09 08:13:22;;;;;;;24.60;9.65;;;;;;;;;;5006485;28;20061;-65
2021/03/09 08:15:48;;;;;;;21.67;8.88;;;;;;;;;;5022917;28;20115;-62
2021/03/09 08:18:29;;;;;;;21.98;8.07;;;;;;;;;;5017811;28;20038;-66
2021/03/09 08:20:56;;;;;;;12.88;4.97;;;;;;;;;;5020895;28;20033;-67
2021/03/09 08:23:49;;;;;;;17.23;5.10;;;;;;;;;;5017871;28;20057;-67
2021/03/09 08:26:30;;;;;;;12.52;4.07;;;;;;;;;;5021594;28;20104;-65
2021/03/09 08:28:57;;;;;;;12.52;3.58;;;;;;;;;;5003841;28;20046;-66
2021/03/09 08:31:26;;;;;;;12.45;3.85;;;;;;;;;;5002473;28;20584;-65
2021/03/09 08:33:54;;;;;;;10.57;4.13;;;;;;;;;;4999053;28;20042;-65
2021/03/09 08:36:31;;;;;;;12.80;3.80;;;;;;;;;;5002132;28;20050;-62
2021/03/09 08:39:17;;;;;;;9.27;3.53;;;;;;;;;;4997592;28;20295;-62
2021/03/09 08:42:02;;;;;;;6.85;2.92;;;;;;;;;;5005099;28;20038;-62
2021/03/09 08:44:29;;;;;;;16.00;3.72;;;;;;;;;;4999873;28;20038;-59
2021/03/09 08:46:56;;;;;;;8.65;3.10;;;;;;;;;;5002843;28;20058;-62
2021/03/09 08:49:40;;;;;;;9.35;2.78;;;;;;;;;;5011129;28;20070;-60
2021/03/09 08:52:06;;;;;;;9.40;2.63;;;;;;;;;;5021865;28;20038;-65
2021/03/09 08:54:37;;;;;;;13.23;3.00;;;;;;;;;;5017735;28;20061;-62
2021/03/09 08:57:04;;;;;;;9.20;2.72;;;;;;;;;;5021832;28;20152;-65
2021/03/09 08:59:32;;;;;;;15.25;4.50;;;;;;;;;;5009092;28;20069;-65
2021/03/09 09:02:05;;;;;;;12.25;4.32;;;;;;;;;;5005200;28;20177;-64
2021/03/09 09:04:31;;;;;;;11.70;4.13;;;;;;;;;;5002288;28;20082;-65
2021/03/09 09:06:57;;;;;;;7.90;3.03;;;;;;;;;;5007600;28;20042;-64
2021/03/09 09:09:31;;;;;;;7.13;2.72;;;;;;;;;;5001882;28;20054;-64
2021/03/09 09:11:57;;;;;;;6.65;2.45;;;;;;;;;;5003379;28;20115;-64
2021/03/09 09:14:23;;;;;;;7.45;2.78;;;;;;;;;;5002715;28;20034;-62
2021/03/09 09:16:52;;;;;;;7.95;2.85;;;;;;;;;;5004054;28;20049;-66
2021/03/09 09:19:25;;;;;;;7.32;2.65;;;;;;;;;;5005259;28;20034;-64
2021/03/09 09:21:51;;;;;;;6.78;2.78;;;;;;;;;;5004512;28;20046;-64
2021/03/09 09:24:18;;;;;;;6.00;2.75;;;;;;;;;;5003480;28;20048;-60
2021/03/09 09:26:44;;;;;;;7.95;2.83;;;;;;;;;;5002009;28;20046;-66
2021/03/09 09:29:10;;;;;;;9.32;2.70;;;;;;;;;;4986716;28;20031;-64
2021/03/09 09:31:36;;;;;;;5.40;2.38;;;;;;;;;;4997841;28;20034;-63
2021/03/09 09:34:05;;;;;;;6.57;2.58;;;;;;;;;;5023569;28;20052;-65
2021/03/09 09:36:31;;;;;;;5.60;2.80;;;;;;;;;;5007000;28;20582;-65
2021/03/09 09:38:57;;;;;;;6.28;2.13;;;;;;;;;;5004079;28;20046;-68
2021/03/09 09:41:23;;;;;;;7.53;2.60;;;;;;;;;;4998954;28;20045;-67
2021/03/09 09:43:49;;;;;;;4.28;2.05;;;;;;;;;;5012642;28;20050;-61
2021/03/09 09:46:18;;;;;;;5.90;1.90;;;;;;;;;;5009353;28;20038;-59
2021/03/09 09:48:44;;;;;;;3.05;1.60;;;;;;;;;;5025826;28;20052;-61
2021/03/09 09:51:14;;;;;;;5.88;1.80;;;;;;;;;;5022139;28;20052;-65
2021/03/09 09:53:40;;;;;;;3.78;1.92;;;;;;;;;;5025649;28;20033;-64
2021/03/09 09:56:07;;;;;;;3.97;1.77;;;;;;;;;;5019079;28;20045;-59
2021/03/09 09:58:41;;;;;;;3.03;1.63;;;;;;;;;;5006147;28;20042;-63
2021/03/09 10:01:09;;;;;;;4.28;1.85;;;;;;;;;;5003918;28;20034;-65
2021/03/09 10:03:49;;;;;;;4.10;1.70;;;;;;;;;;5006945;28;20038;-64
2021/03/09 10:06:16;;;;;;;4.75;2.00;;;;;;;;;;5006792;28;20064;-64
2021/03/09 10:08:43;;;;;;;5.18;1.77;;;;;;;;;;5026208;28;20038;-60
2021/03/09 10:11:10;;;;;;;4.60;1.63;;;;;;;;;;5023138;28;20096;-64
2021/03/09 10:13:36;;;;;;;4.07;1.67;;;;;;;;;;4986694;28;20038;-60
2021/03/09 10:16:02;;;;;;;6.95;2.35;;;;;;;;;;5002723;28;20042;-61
2021/03/09 10:18:29;;;;;;;3.25;1.50;;;;;;;;;;4996030;28;20023;-60
2021/03/09 10:21:06;;;;;;;4.80;1.55;;;;;;;;;;4985700;28;20053;-61
2021/03/09 10:23:33;;;;;;;4.47;2.00;;;;;;;;;;4999508;28;20047;-63
2021/03/09 10:26:00;;;;;;;3.40;1.60;;;;;;;;;;5005542;28;20051;-67
2021/03/09 10:28:26;;;;;;;3.17;1.45;;;;;;;;;;5000210;28;20116;-61
2021/03/09 10:30:53;;;;;;;6.25;2.55;;;;;;;;;;4986440;28;20034;-67
2021/03/09 10:33:19;;;;;;;6.05;2.53;;;;;;;;;;4995666;28;20037;-67
2021/03/09 10:36:03;;;;;;;6.45;1.55;;;;;;;;;;5007472;28;20049;-61
2021/03/09 10:38:30;;;;;;;5.47;1.10;;;;;;;;;;5012917;28;20073;-65
2021/03/09 10:40:57;;;;;;;5.50;1.20;;;;;;;;;;5026956;28;20048;-64
2021/03/09 10:43:42;;;;;;;3.58;1.25;;;;;;;;;;5007140;28;20065;-61
2021/03/09 10:46:08;;;;;;;1.85;1.17;;;;;;;;;;5025432;28;20111;-60
2021/03/09 10:48:34;;;;;;;5.47;1.10;;;;;;;;;;5003790;28;20041;-66
2021/03/09 10:51:00;;;;;;;6.32;2.00;;;;;;;;;;5008118;28;20042;-61
2021/03/09 10:53:26;;;;;;;4.45;2.20;;;;;;;;;;5022515;28;20116;-63
2021/03/09 10:55:52;;;;;;;5.80;2.45;;;;;;;;;;5005463;28;20056;-65
2021/03/09 10:58:19;;;;;;;7.88;2.65;;;;;;;;;;5004178;28;20124;-61
2021/03/09 11:00:45;;;;;;;8.38;2.90;;;;;;;;;;5006806;28;20042;-60
2021/03/09 11:03:11;;;;;;;5.72;2.67;;;;;;;;;;5004174;28;20107;-62
2021/03/09 11:05:37;;;;;;;4.68;2.40;;;;;;;;;;4986769;28;20042;-62
2021/03/09 11:08:03;;;;;;;8.75;2.65;;;;;;;;;;4986172;28;20034;-63
2021/03/09 11:10:29;;;;;;;4.88;2.50;;;;;;;;;;5000720;28;20044;-61
2021/03/09 11:12:55;;;;;;;8.68;3.00;;;;;;;;;;5002412;28;20046;-59
2021/03/09 11:15:22;;;;;;;5.75;2.70;;;;;;;;;;5013646;28;20045;-66
2021/03/09 11:17:48;;;;;;;6.13;2.38;;;;;;;;;;5043085;28;20041;-64
2021/03/09 11:20:15;;;;;;;4.10;2.00;;;;;;;;;;5008991;28;20038;-63
2021/03/09 11:22:41;;;;;;;4.68;1.80;;;;;;;;;;5006739;28;20156;-62
2021/03/09 11:25:08;;;;;;;3.75;1.83;;;;;;;;;;4999667;28;20049;-64
2021/03/09 11:27:34;;;;;;;2.42;1.30;;;;;;;;;;4996234;28;20038;-63
2021/03/09 11:29:59;;;;;;;1.92;0.98;;;;;;;;;;5020692;28;20053;-64
2021/03/09 11:32:26;;;;;;;5.18;0.80;;;;;;;;;;5004730;28;20041;-59
2021/03/09 11:34:55;;;;;;;2.63;1.00;;;;;;;;;;5002729;28;20042;-62
2021/03/09 11:37:21;;;;;;;2.05;1.02;;;;;;;;;;5006519;28;20148;-60
2021/03/09 11:39:47;;;;;;;3.13;0.73;;;;;;;;;;5001972;28;20065;-62
2021/03/09 11:42:13;;;;;;;2.55;0.80;;;;;;;;;;5014127;28;20032;-64
2021/03/09 11:44:39;;;;;;;2.35;1.10;;;;;;;;;;5008075;28;20046;-62
2021/03/09 11:47:05;;;;;;;3.90;0.60;;;;;;;;;;5021570;28;20099;-66
2021/03/09 11:49:31;;;;;;;2.55;0.70;;;;;;;;;;5005819;28;20048;-63
2021/03/09 11:51:57;;;;;;;1.70;0.88;;;;;;;;;;4998350;28;20049;-63
2021/03/09 11:54:23;;;;;;;2.70;0.90;;;;;;;;;;5003796;28;20046;-61
2021/03/09 11:56:50;;;;;;;3.50;0.80;;;;;;;;;;5004906;28;20123;-63
2021/03/09 11:59:16;;;;;;;1.35;0.68;;;;;;;;;;4986241;28;20042;-63
2021/03/09 12:01:42;;;;;;;8.60;1.00;;;;;;;;;;4992680;28;20113;-64
2021/03/09 12:04:08;;;;;;;2.83;1.00;;;;;;;;;;5005211;28;20109;-64
2021/03/09 12:06:35;;;;;;;3.30;0.90;;;;;;;;;;5011422;28;20054;-66
2021/03/09 12:09:02;;;;;;;1.35;0.65;;;;;;;;;;4986533;28;20057;-65
2021/03/09 12:11:28;;;;;;;2.42;1.02;;;;;;;;;;4975957;28;20050;-63
2021/03/09 12:13:54;;;;;;;2.28;1.10;;;;;;;;;;4966993;28;20027;-67
2021/03/09 12:16:20;;;;;;;1.40;0.88;;;;;;;;;;4964159;28;20038;-64
2021/03/09 12:18:47;;;;;;;3.10;0.90;;;;;;;;;;4968162;28;20063;-65
2021/03/09 12:21:13;;;;;;;2.45;0.73;;;;;;;;;;4966160;28;20066;-61
2021/03/09 12:23:41;;;;;;;2.53;0.90;;;;;;;;;;4965323;28;20055;-65
2021/03/09 12:26:08;;;;;;;1.63;0.90;;;;;;;;;;4966137;28;20039;-65
2021/03/09 12:28:34;;;;;;;5.38;1.20;;;;;;;;;;4980380;28;20063;-64
2021/03/09 12:31:00;;;;;;;2.90;0.88;;;;;;;;;;5002150;28;20046;-65
2021/03/09 12:33:26;;;;;;;3.80;0.80;;;;;;;;;;4967395;28;20070;-67
2021/03/09 12:35:52;;;;;;;2.05;1.13;;;;;;;;;;4965238;28;20046;-64
2021/03/09 12:38:18;;;;;;;4.60;0.95;;;;;;;;;;4985832;28;20046;-64
2021/03/09 12:40:45;;;;;;;2.08;0.90;;;;;;;;;;4968921;28;20039;-62
2021/03/09 12:43:11;;;;;;;2.92;0.82;;;;;;;;;;4982719;28;20034;-60
2021/03/09 12:45:37;;;;;;;1.75;0.90;;;;;;;;;;4988202;28;20053;-63
2021/03/09 12:48:03;;;;;;;2.58;1.42;;;;;;;;;;4983186;28;20049;-60
2021/03/09 12:50:29;;;;;;;2.50;0.85;;;;;;;;;;4987801;28;20038;-63
2021/03/09 12:52:55;;;;;;;0.98;0.60;;;;;;;;;;4985072;28;20069;-61
2021/03/09 12:55:21;;;;;;;2.08;0.60;;;;;;;;;;4987218;28;20056;-63
2021/03/09 12:57:48;;;;;;;0.85;0.60;;;;;;;;;;4984230;28;20034;-61
2021/03/09 13:00:15;;;;;;;0.63;0.63;;;;;;;;;;4968220;28;20067;-60
2021/03/09 13:02:41;;;;;;;2.83;0.77;;;;;;;;;;4969786;28;20043;-60
2021/03/09 13:05:08;;;;;;;3.58;0.70;;;;;;;;;;4966138;28;20038;-66
2021/03/09 13:07:34;;;;;;;0.85;0.70;;;;;;;;;;4968163;28;20051;-66
2021/03/09 13:10:00;;;;;;;2.95;0.70;;;;;;;;;;4966803;28;20074;-66
2021/03/09 13:12:27;;;;;;;1.20;0.80;;;;;;;;;;4969252;28;20098;-63
2021/03/09 13:14:54;;;;;;;1.50;0.77;;;;;;;;;;4963856;28;20093;-66
2021/03/09 13:17:23;;;;;;;1.30;0.75;;;;;;;;;;4985733;28;20058;-66
2021/03/09 13:19:49;;;;;;;3.38;0.65;;;;;;;;;;4964697;28;20124;-67
2021/03/09 13:22:15;;;;;;;2.08;0.77;;;;;;;;;;4967617;28;20047;-65
2021/03/09 13:24:41;;;;;;;3.08;1.25;;;;;;;;;;4964486;28;20047;-64
2021/03/09 13:27:07;;;;;;;2.97;0.98;;;;;;;;;;4976799;28;20267;-63
2021/03/09 13:29:33;;;;;;;2.72;1.10;;;;;;;;;;4979742;28;20031;-65
2021/03/09 13:32:00;;;;;;;3.60;1.02;;;;;;;;;;4967225;28;20043;-65
2021/03/09 13:34:26;;;;;;;1.00;0.63;;;;;;;;;;4963921;28;20038;-67
2021/03/09 13:36:52;;;;;;;2.40;0.93;;;;;;;;;;4967803;28;20046;-67
2021/03/09 13:39:18;;;;;;;1.20;0.80;;;;;;;;;;4966575;28;20038;-62
2021/03/09 13:41:45;;;;;;;1.23;0.80;;;;;;;;;;4986905;28;20040;-65
2021/03/09 13:44:11;;;;;;;1.38;0.90;;;;;;;;;;4986309;28;20038;-66
2021/03/09 13:46:37;;;;;;;4.18;0.75;;;;;;;;;;4985541;28;20042;-65
2021/03/09 13:49:03;;;;;;;1.38;0.90;;;;;;;;;;4984032;28;20098;-61
2021/03/09 13:51:29;;;;;;;1.00;0.70;;;;;;;;;;4979686;28;20038;-65
2021/03/09 13:53:55;;;;;;;1.42;0.82;;;;;;;;;;5006373;28;20049;-68
2021/03/09 13:56:21;;;;;;;1.27;0.73;;;;;;;;;;4983725;28;20049;-65
2021/03/09 13:58:48;;;;;;;1.00;0.80;;;;;;;;;;5005426;28;20099;-65
2021/03/09 14:01:14;;;;;;;2.42;0.98;;;;;;;;;;4974718;28;20043;-64
2021/03/09 14:03:40;;;;;;;2.72;0.90;;;;;;;;;;4967145;28;20109;-63
2021/03/09 14:06:07;;;;;;;2.20;1.00;;;;;;;;;;4964474;28;20105;-61
2021/03/09 14:08:33;;;;;;;5.32;1.38;;;;;;;;;;4968077;28;20053;-61
2021/03/09 14:10:59;;;;;;;7.75;2.47;;;;;;;;;;4964243;28;20385;-62
2021/03/09 14:13:25;;;;;;;10.27;3.70;;;;;;;;;;4985541;28;20046;-61
2021/03/09 14:15:51;;;;;;;3.88;1.70;;;;;;;;;;4980940;28;20070;-62
2021/03/09 14:18:17;;;;;;;7.10;1.60;;;;;;;;;;4968555;28;20034;-63
2021/03/09 14:20:43;;;;;;;3.92;1.50;;;;;;;;;;4968106;28;20054;-65
2021/03/09 14:23:10;;;;;;;2.63;1.30;;;;;;;;;;4965866;28;20049;-62
2021/03/09 14:25:36;;;;;;;3.58;1.40;;;;;;;;;;4968448;28;20054;-61
2021/03/09 14:28:03;;;;;;;2.72;1.55;;;;;;;;;;4979921;28;20038;-65
2021/03/09 14:30:29;;;;;;;3.33;1.50;;;;;;;;;;4987197;28;20053;-65
2021/03/09 14:32:55;;;;;;;2.97;1.30;;;;;;;;;;5000716;28;20050;-64
2021/03/09 14:35:21;;;;;;;3.10;1.45;;;;;;;;;;4987448;28;20065;-64